Time;durP1;ratioP1;P1;durP2;ratioP2;P2;SDS_P1;SDS_P2;PMS_P1;PMS_P2;Temp;Humidity;BMP_temperature;BMP_pressure;BME280_temperature;BME280_humidity;BME280_pressure;Samples;Min_cycle;Max_cycle;Signal;HPM_P1;HPM_P2
2023/01/09 00:01:18;;;;;;;;;;;;;;;25.70;47.62;92793.22;4964519;28;7369;-72
2023/01/09 00:03:46;;;;;;;;;;;;;;;25.66;47.34;92781.84;4982014;28;9495;-72
2023/01/09 00:06:13;;;;;;;;;;;;;;;25.69;47.45;92768.97;4947282;28;7016;-71
2023/01/09 00:08:43;;;;;;;;;;;;;;;25.71;47.03;92763.69;4982184;28;9797;-72
2023/01/09 00:11:15;;;;;;;;;;;;;;;25.74;47.43;92777.06;4965730;28;7210;-72
2023/01/09 00:13:49;;;;;;;;;;;;;;;25.76;46.83;92776.53;4953698;29;8835;-71
2023/01/09 00:16:17;;;;;;;;;;;;;;;25.76;47.52;92769.00;4953492;28;7070;-71
2023/01/09 00:18:59;;;;;;;;;;;;;;;25.76;46.95;92757.97;4953838;29;7293;-71
2023/01/09 00:21:48;;;;;;;;;;;;;;;25.75;47.67;92759.25;4950872;28;9385;-71
2023/01/09 00:24:39;;;;;;;;;;;;;;;25.75;47.41;92762.00;4953096;29;9044;-71
2023/01/09 00:27:06;;;;;;;;;;;;;;;25.75;47.41;92761.28;4948430;28;8775;-71
2023/01/09 00:29:34;;;;;;;;;;;;;;;25.73;47.91;92759.06;4984383;28;7144;-71
2023/01/09 00:32:09;;;;;;;;;;;;;;;25.75;47.54;92770.28;4951686;28;7291;-72
2023/01/09 00:34:37;;;;;;;;;;;;;;;25.76;46.85;92771.75;4949485;28;9258;-71
2023/01/09 00:37:10;;;;;;;;;;;;;;;25.77;47.54;92769.75;4949995;28;7833;-71
2023/01/09 00:39:40;;;;;;;;;;;;;;;25.78;47.32;92758.16;4953461;28;7416;-71
2023/01/09 00:42:11;;;;;;;;;;;;;;;25.78;47.07;92762.94;4956838;28;7226;-71
2023/01/09 00:45:27;;;;;;;;;;;;;;;25.77;47.42;92729.19;4955044;28;9095;-71
2023/01/09 00:48:02;;;;;;;;;;;;;;;25.78;47.56;92727.13;4937758;28;8852;-71
2023/01/09 00:50:31;;;;;;;;;;;;;;;25.76;47.36;92716.69;4950113;28;9245;-71
2023/01/09 00:53:05;;;;;;;;;;;;;;;25.74;47.73;92702.00;4951128;28;7026;-71
2023/01/09 00:55:37;;;;;;;;;;;;;;;25.71;47.10;92723.09;4938069;28;7042;-71
2023/01/09 00:58:39;;;;;;;;;;;;;;;25.74;46.67;92749.53;4970893;28;7471;-71
2023/01/09 01:01:14;;;;;;;;;;;;;;;25.74;47.48;92757.81;4919859;29;7219;-71
2023/01/09 01:03:55;;;;;;;;;;;;;;;25.74;47.32;92724.75;4926082;29;9345;-71
2023/01/09 01:09:43;;;;;;;;;;;;;;;25.71;47.69;92782.97;4913801;29;7247;-71
2023/01/09 01:12:22;;;;;;;;;;;;;;;25.74;47.46;92735.78;4897146;29;9073;-71
2023/01/09 01:15:22;;;;;;;;;;;;;;;25.73;47.87;92750.81;4910763;29;9207;-71
2023/01/09 01:17:48;;;;;;;;;;;;;;;25.74;47.11;92751.56;4912252;29;7680;-71
2023/01/09 01:20:27;;;;;;;;;;;;;;;25.73;47.45;92737.03;4899736;29;7270;-71
2023/01/09 01:22:57;;;;;;;;;;;;;;;25.72;47.61;92749.34;4898612;29;7297;-71
2023/01/09 01:26:03;;;;;;;;;;;;;;;25.70;47.08;92740.91;4930425;29;7250;-71
2023/01/09 01:28:41;;;;;;;;;;;;;;;25.72;47.25;92746.59;4877551;29;9213;-71
2023/01/09 01:31:16;;;;;;;;;;;;;;;25.73;47.86;92734.28;4897998;29;7458;-71
2023/01/09 01:33:56;;;;;;;;;;;;;;;25.74;47.92;92746.03;4881219;29;8849;-71
2023/01/09 01:36:22;;;;;;;;;;;;;;;25.74;47.91;92746.78;4887440;29;7044;-71
2023/01/09 01:38:48;;;;;;;;;;;;;;;25.75;47.61;92742.72;4893474;29;7050;-71
2023/01/09 01:41:28;;;;;;;;;;;;;;;25.75;47.88;92773.03;4884354;29;7253;-71
2023/01/09 01:44:38;;;;;;;;;;;;;;;25.74;47.84;92746.78;4886559;29;8793;-71
2023/01/09 01:47:19;;;;;;;;;;;;;;;25.72;47.79;92774.16;4904209;29;7164;-71
2023/01/09 01:50:13;;;;;;;;;;;;;;;25.74;46.89;92755.06;4896179;29;7260;-71
2023/01/09 01:53:04;;;;;;;;;;;;;;;25.77;47.31;92756.72;4877547;29;7243;-71
2023/01/09 01:56:23;;;;;;;;;;;;;;;25.79;47.67;92775.44;4905407;29;7295;-71
2023/01/09 02:02:46;;;;;;;;;;;;;;;25.80;47.21;92801.66;4928481;28;7223;-71
2023/01/09 02:05:14;;;;;;;;;;;;;;;25.80;47.45;92810.69;4959791;28;8007;-71
2023/01/09 02:07:51;;;;;;;;;;;;;;;25.78;47.25;92812.50;4973248;28;7327;-71
2023/01/09 02:10:22;;;;;;;;;;;;;;;25.78;47.23;92821.50;4956877;28;9102;-71
2023/01/09 02:13:01;;;;;;;;;;;;;;;25.78;46.82;92829.03;4940683;28;8958;-72
2023/01/09 02:16:02;;;;;;;;;;;;;;;25.76;47.80;92846.09;4953910;28;7031;-72
2023/01/09 02:19:10;;;;;;;;;;;;;;;25.78;47.47;92851.81;4957803;28;8761;-71
2023/01/09 02:21:48;;;;;;;;;;;;;;;25.75;47.77;92876.97;4949836;28;9191;-71
2023/01/09 02:24:44;;;;;;;;;;;;;;;25.72;48.02;92864.28;4970782;28;8048;-71
2023/01/09 02:27:16;;;;;;;;;;;;;;;25.77;46.67;92874.38;4953271;28;7237;-71
2023/01/09 02:30:07;;;;;;;;;;;;;;;25.79;47.42;92880.09;4971376;28;9800;-71
2023/01/09 02:33:13;;;;;;;;;;;;;;;25.79;47.47;92875.31;4962398;28;9413;-71
2023/01/09 02:35:59;;;;;;;;;;;;;;;25.78;47.00;92878.59;4954640;28;8973;-71
2023/01/09 02:38:51;;;;;;;;;;;;;;;25.76;47.71;92887.41;4964925;28;7268;-71
2023/01/09 02:41:35;;;;;;;;;;;;;;;25.79;46.88;92888.34;4953940;28;7052;-71
2023/01/09 02:44:17;;;;;;;;;;;;;;;25.78;47.71;92884.84;4945658;28;7011;-71
2023/01/09 02:47:00;;;;;;;;;;;;;;;25.81;47.01;92896.78;4951985;28;7638;-72
2023/01/09 02:49:29;;;;;;;;;;;;;;;25.83;47.30;92900.47;4955652;28;7248;-72
2023/01/09 02:52:39;;;;;;;;;;;;;;;25.79;47.23;92918.66;4952661;28;7930;-71
2023/01/09 02:55:27;;;;;;;;;;;;;;;25.79;47.30;92913.88;4958351;28;7854;-71
2023/01/09 02:57:56;;;;;;;;;;;;;;;25.78;47.46;92934.44;4953585;28;7277;-71
2023/01/09 03:00:31;;;;;;;;;;;;;;;25.79;47.33;92941.41;4957654;28;9067;-71
2023/01/09 03:03:19;;;;;;;;;;;;;;;25.79;47.16;92957.94;4936945;28;7445;-71
2023/01/09 03:05:53;;;;;;;;;;;;;;;25.78;46.53;92964.72;4964859;28;9176;-70
2023/01/09 03:08:45;;;;;;;;;;;;;;;25.78;47.56;92970.22;4955491;28;9494;-71
2023/01/09 03:11:47;;;;;;;;;;;;;;;25.79;47.13;92982.72;4954197;28;7388;-71
2023/01/09 03:14:20;;;;;;;;;;;;;;;25.80;46.99;92997.22;4933532;28;9447;-71
2023/01/09 03:17:03;;;;;;;;;;;;;;;25.78;47.06;92997.03;4949729;28;9051;-72
2023/01/09 03:19:34;;;;;;;;;;;;;;;25.77;47.64;93010.09;4944708;28;7905;-72
2023/01/09 03:22:03;;;;;;;;;;;;;;;25.74;46.89;93011.16;4948476;28;9131;-72
2023/01/09 03:24:29;;;;;;;;;;;;;;;25.74;47.00;93011.16;4955471;28;7008;-72
2023/01/09 03:27:01;;;;;;;;;;;;;;;25.75;47.69;93009.88;4945951;28;8663;-72
2023/01/09 03:29:30;;;;;;;;;;;;;;;25.77;47.47;93020.34;4964062;28;10029;-72
2023/01/09 03:32:08;;;;;;;;;;;;;;;25.76;47.10;93011.34;4940185;29;9108;-72
2023/01/09 03:34:54;;;;;;;;;;;;;;;25.75;46.85;93025.69;4931631;29;9485;-72
2023/01/09 03:37:20;;;;;;;;;;;;;;;25.74;46.53;93024.19;4914065;29;8649;-72
2023/01/09 03:39:50;;;;;;;;;;;;;;;25.73;46.98;93019.97;4930024;29;9139;-72
2023/01/09 03:42:17;;;;;;;;;;;;;;;25.69;47.09;93034.06;4933297;28;7014;-72
2023/01/09 03:44:46;;;;;;;;;;;;;;;25.70;47.29;93046.59;4916047;29;7273;-72
2023/01/09 03:47:12;;;;;;;;;;;;;;;25.70;47.22;93048.59;4927953;29;9518;-72
2023/01/09 03:49:38;;;;;;;;;;;;;;;25.72;47.26;93041.25;4928924;29;7087;-72
2023/01/09 03:52:12;;;;;;;;;;;;;;;25.71;47.15;93044.56;4947774;28;9047;-72
2023/01/09 03:54:39;;;;;;;;;;;;;;;25.69;47.31;93058.13;4948762;28;7104;-72
2023/01/09 03:57:08;;;;;;;;;;;;;;;25.71;46.54;93058.34;4950479;28;7198;-72
2023/01/09 03:59:36;;;;;;;;;;;;;;;25.70;46.99;93065.84;4943912;28;7838;-72
2023/01/09 04:02:03;;;;;;;;;;;;;;;25.67;46.93;93049.66;4948397;28;9225;-71
2023/01/09 04:04:30;;;;;;;;;;;;;;;25.66;47.72;93062.72;4944070;28;7032;-72
2023/01/09 04:06:58;;;;;;;;;;;;;;;25.65;46.91;93058.47;4960641;28;9714;-72
2023/01/09 04:09:27;;;;;;;;;;;;;;;25.64;47.57;93057.03;4948896;28;7053;-72
2023/01/09 04:11:54;;;;;;;;;;;;;;;25.64;47.40;93053.53;4943736;28;8654;-72
2023/01/09 04:14:20;;;;;;;;;;;;;;;25.63;47.34;93047.28;4981194;28;7241;-72
2023/01/09 04:16:47;;;;;;;;;;;;;;;25.65;47.56;93052.97;4953025;28;7600;-72
2023/01/09 04:19:14;;;;;;;;;;;;;;;25.64;47.33;93056.28;4959624;28;7098;-71
2023/01/09 04:21:40;;;;;;;;;;;;;;;25.66;46.77;93073.72;4958301;28;8126;-72
2023/01/09 04:24:06;;;;;;;;;;;;;;;25.64;47.41;93075.56;4964097;28;7103;-72
2023/01/09 04:26:34;;;;;;;;;;;;;;;25.68;47.34;93084.19;4965181;28;9177;-72
2023/01/09 04:29:02;;;;;;;;;;;;;;;25.66;47.61;93087.50;4954324;28;9345;-72
2023/01/09 04:31:30;;;;;;;;;;;;;;;25.67;46.93;93091.72;4955184;28;9006;-72
2023/01/09 04:34:02;;;;;;;;;;;;;;;25.68;47.49;93103.47;4958690;28;7304;-72
2023/01/09 04:36:28;;;;;;;;;;;;;;;25.68;46.68;93108.97;4949063;28;8964;-72
2023/01/09 04:38:57;;;;;;;;;;;;;;;25.70;46.39;93109.19;4950640;28;7706;-72
2023/01/09 04:44:26;;;;;;;;;;;;;;;25.69;47.07;93129.72;4953569;28;7316;-72
2023/01/09 04:46:57;;;;;;;;;;;;;;;25.67;46.68;93126.78;4986198;28;8989;-72
2023/01/09 04:49:25;;;;;;;;;;;;;;;25.69;46.61;93141.47;4954395;28;7480;-72
2023/01/09 04:51:52;;;;;;;;;;;;;;;25.68;46.65;93155.78;4958289;28;7043;-71
2023/01/09 04:54:21;;;;;;;;;;;;;;;25.66;46.93;93152.84;4947712;28;9109;-73
2023/01/09 04:56:58;;;;;;;;;;;;;;;25.64;46.92;93167.16;4983882;28;9342;-72
2023/01/09 04:59:38;;;;;;;;;;;;;;;25.65;47.48;93178.91;4985747;28;9158;-72
2023/01/09 05:02:05;;;;;;;;;;;;;;;25.64;47.01;93180.19;4951093;28;8663;-72
2023/01/09 05:04:48;;;;;;;;;;;;;;;25.63;47.56;93182.19;4982251;28;7200;-72
2023/01/09 05:07:22;;;;;;;;;;;;;;;25.64;47.61;93188.44;4987893;28;7480;-71
2023/01/09 05:09:54;;;;;;;;;;;;;;;25.67;47.32;93190.09;4961061;28;7659;-72
2023/01/09 05:12:47;;;;;;;;;;;;;;;25.70;47.19;93195.28;4982616;28;7049;-71
2023/01/09 05:15:16;;;;;;;;;;;;;;;25.72;47.18;93194.75;4941778;28;7212;-72
2023/01/09 05:17:46;;;;;;;;;;;;;;;25.76;46.70;93214.41;4949842;28;7842;-71
2023/01/09 05:20:22;;;;;;;;;;;;;;;25.76;46.94;93201.38;4950854;28;7808;-71
2023/01/09 05:23:01;;;;;;;;;;;;;;;25.74;46.68;93217.72;4937677;28;7433;-70
2023/01/09 05:25:27;;;;;;;;;;;;;;;25.78;46.36;93217.38;4933722;28;7279;-70
2023/01/09 05:28:03;;;;;;;;;;;;;;;25.78;46.05;93220.88;4948530;28;9048;-70
2023/01/09 05:30:31;;;;;;;;;;;;;;;25.79;46.41;93221.59;4940332;28;8945;-71
2023/01/09 05:32:57;;;;;;;;;;;;;;;25.79;46.34;93225.09;4935641;28;9084;-71
2023/01/09 05:35:23;;;;;;;;;;;;;;;25.81;46.98;93219.03;4946040;28;7591;-70
2023/01/09 05:37:53;;;;;;;;;;;;;;;25.80;46.80;93226.56;4950520;28;9170;-71
2023/01/09 05:40:20;;;;;;;;;;;;;;;25.82;46.46;93221.25;4951805;28;9225;-72
2023/01/09 05:42:51;;;;;;;;;;;;;;;25.82;46.25;93213.00;4939223;28;7161;-72
2023/01/09 05:45:43;;;;;;;;;;;;;;;25.84;45.98;93204.19;4956065;28;9028;-72
2023/01/09 05:48:21;;;;;;;;;;;;;;;25.87;46.61;93217.63;4953274;28;7213;-71
2023/01/09 05:51:22;;;;;;;;;;;;;;;25.85;46.85;93213.94;4941157;28;7313;-71
2023/01/09 05:53:49;;;;;;;;;;;;;;;25.88;47.08;93215.63;4944191;28;9401;-70
2023/01/09 05:56:17;;;;;;;;;;;;;;;25.91;47.23;93214.50;4967156;28;7051;-70
2023/01/09 05:58:55;;;;;;;;;;;;;;;25.92;46.96;93222.25;4931240;28;9646;-72
2023/01/09 06:01:37;;;;;;;;;;;;;;;25.92;46.21;93214.00;4929804;28;7380;-71
2023/01/09 06:04:14;;;;;;;;;;;;;;;25.91;46.33;93211.75;4946934;28;8899;-72
2023/01/09 06:06:51;;;;;;;;;;;;;;;25.90;45.58;93208.25;4925996;28;7278;-71
2023/01/09 06:09:31;;;;;;;;;;;;;;;25.88;45.57;93207.34;4940892;28;7261;-72
2023/01/09 06:11:59;;;;;;;;;;;;;;;25.89;46.54;93209.56;4943867;28;7037;-72
2023/01/09 06:14:37;;;;;;;;;;;;;;;25.92;46.39;93211.25;4936413;28;7295;-71
2023/01/09 06:17:28;;;;;;;;;;;;;;;25.94;46.07;93227.22;4936310;28;7051;-72
2023/01/09 06:19:56;;;;;;;;;;;;;;;25.92;44.39;93216.75;4950531;28;9378;-72
2023/01/09 06:22:28;;;;;;;;;;;;;;;25.91;45.32;93226.28;4956376;28;9024;-70
2023/01/09 06:25:01;;;;;;;;;;;;;;;25.90;45.06;93207.53;4950719;28;7204;-70
2023/01/09 06:27:30;;;;;;;;;;;;;;;25.88;45.04;93210.09;4948616;28;8048;-71
2023/01/09 06:29:57;;;;;;;;;;;;;;;25.89;45.45;93189.53;4943136;28;7697;-71
2023/01/09 06:32:23;;;;;;;;;;;;;;;25.88;44.08;93175.00;4964722;28;7584;-71
2023/01/09 06:34:59;;;;;;;;;;;;;;;25.84;43.99;93174.63;4950558;28;9339;-71
2023/01/09 06:37:25;;;;;;;;;;;;;;;25.80;45.05;93168.72;4950791;28;9109;-71
2023/01/09 06:39:55;;;;;;;;;;;;;;;25.78;44.91;93165.78;4967101;28;9586;-72
2023/01/09 06:42:21;;;;;;;;;;;;;;;25.81;45.08;93172.22;4954569;28;7329;-71
2023/01/09 06:45:47;;;;;;;;;;;;;;;25.83;45.26;93175.91;4954733;28;8544;-71
2023/01/09 06:48:14;;;;;;;;;;;;;;;25.82;45.22;93179.94;4916168;28;7073;-71
2023/01/09 06:50:40;;;;;;;;;;;;;;;25.80;45.37;93182.50;4923831;28;7489;-71
2023/01/09 06:53:07;;;;;;;;;;;;;;;25.79;44.91;93196.81;4911126;29;9170;-71
2023/01/09 06:55:45;;;;;;;;;;;;;;;25.75;45.16;93205.41;4930074;29;9437;-72
2023/01/09 06:58:15;;;;;;;;;;;;;;;25.77;44.88;93213.16;4892501;29;8940;-71
2023/01/09 07:00:44;;;;;;;;;;;;;;;25.79;44.60;93227.84;4928626;29;8735;-70
2023/01/09 07:03:23;;;;;;;;;;;;;;;25.78;44.19;93231.13;4932548;29;7053;-71
2023/01/09 07:06:06;;;;;;;;;;;;;;;25.80;44.39;93245.09;4929718;29;7671;-71
2023/01/09 07:08:33;;;;;;;;;;;;;;;25.79;44.59;93247.13;4910925;29;9054;-70
2023/01/09 07:11:00;;;;;;;;;;;;;;;25.81;44.47;93243.84;4948585;28;7386;-70
2023/01/09 07:13:48;;;;;;;;;;;;;;;25.81;44.74;93241.09;4928656;29;7215;-71
2023/01/09 07:16:13;;;;;;;;;;;;;;;25.83;44.30;93250.28;4927143;29;9358;-71
2023/01/09 07:18:40;;;;;;;;;;;;;;;25.82;44.48;93237.78;4928193;28;7061;-72
2023/01/09 07:21:06;;;;;;;;;;;;;;;25.81;44.45;93235.56;4934470;28;9457;-71
2023/01/09 07:23:36;;;;;;;;;;;;;;;25.79;45.14;93233.38;4964401;28;7776;-71
2023/01/09 07:26:13;;;;;;;;;;;;;;;25.77;44.91;93241.44;4953768;28;7446;-71
2023/01/09 07:28:53;;;;;;;;;;;;;;;25.80;44.99;93234.84;4963596;28;7114;-70
2023/01/09 07:31:27;;;;;;;;;;;;;;;25.81;44.94;93235.56;4955446;28;7126;-71
2023/01/09 07:33:55;;;;;;;;;;;;;;;25.80;45.07;93234.84;4937398;28;7538;-70
2023/01/09 07:36:23;;;;;;;;;;;;;;;25.81;45.03;93230.81;4951284;28;6996;-71
2023/01/09 07:38:49;;;;;;;;;;;;;;;25.83;44.79;93227.50;4968433;28;7714;-69
2023/01/09 07:41:18;;;;;;;;;;;;;;;25.83;44.29;93216.50;4953127;29;9603;-71
2023/01/09 07:43:44;;;;;;;;;;;;;;;25.81;44.40;93208.78;4961191;28;7175;-71
2023/01/09 07:46:20;;;;;;;;;;;;;;;25.84;45.17;93209.69;4949453;28;9092;-70
2023/01/09 07:48:53;;;;;;;;;;;;;;;25.80;45.20;93206.53;4951049;28;9038;-71
2023/01/09 07:51:22;;;;;;;;;;;;;;;25.81;45.20;93210.78;4949294;28;9047;-71
2023/01/09 07:53:56;;;;;;;;;;;;;;;25.80;44.85;93196.28;4953439;28;7337;-71
2023/01/09 07:56:29;;;;;;;;;;;;;;;25.84;45.33;93204.19;4988555;28;7053;-71
2023/01/09 07:59:12;;;;;;;;;;;;;;;25.84;44.81;93204.19;4986634;28;9495;-71
2023/01/09 08:02:05;;;;;;;;;;;;;;;25.83;44.93;93213.75;4989273;28;8805;-71
2023/01/09 08:04:38;;;;;;;;;;;;;;;25.80;45.39;93207.28;4955465;28;7064;-71
2023/01/09 08:07:39;;;;;;;;;;;;;;;25.82;44.49;93210.25;4944324;28;7290;-70
2023/01/09 08:10:20;;;;;;;;;;;;;;;25.81;44.65;93208.03;4955488;28;7289;-71
2023/01/09 08:12:49;;;;;;;;;;;;;;;25.81;45.05;93214.28;4939685;28;9082;-71
2023/01/09 08:15:26;;;;;;;;;;;;;;;25.80;44.54;93218.31;4953256;28;7027;-71
2023/01/09 08:17:56;;;;;;;;;;;;;;;25.80;44.98;93215.56;4939801;28;7232;-70
2023/01/09 08:20:37;;;;;;;;;;;;;;;25.81;44.45;93213.53;4942377;28;7030;-70
2023/01/09 08:23:06;;;;;;;;;;;;;;;25.82;44.64;93215.75;4940132;28;8776;-71
2023/01/09 08:26:02;;;;;;;;;;;;;;;25.82;45.01;93210.25;4954773;28;11149;-70
2023/01/09 08:28:44;;;;;;;;;;;;;;;25.80;45.46;93215.56;4900546;29;7018;-71
2023/01/09 08:31:50;;;;;;;;;;;;;;;25.80;44.93;93221.06;4917855;29;7495;-71
2023/01/09 08:34:49;;;;;;;;;;;;;;;25.79;45.44;93224.34;4900280;29;9374;-71
2023/01/09 08:37:18;;;;;;;;;;;;;;;25.79;44.57;93227.84;4916039;29;7183;-71
2023/01/09 08:39:44;;;;;;;;;;;;;;;25.80;45.02;93226.56;4914247;29;9298;-71
2023/01/09 08:47:58;;;;;;;;;;;;;;;25.79;44.78;93222.34;4914547;29;7434;-71
2023/01/09 08:50:40;;;;;;;;;;;;;;;25.78;45.49;93209.09;4913158;29;7176;-71
2023/01/09 08:53:17;;;;;;;;;;;;;;;25.81;44.66;93219.03;4915944;29;9103;-71
2023/01/09 08:55:48;;;;;;;;;;;;;;;25.82;45.20;93215.75;4896743;29;7233;-71
2023/01/09 08:58:31;;;;;;;;;;;;;;;25.82;45.17;93226.75;4918695;29;9018;-71
2023/01/09 09:01:22;;;;;;;;;;;;;;;25.84;44.81;93223.47;4931856;28;9205;-71
2023/01/09 09:03:59;;;;;;;;;;;;;;;25.82;44.49;93221.25;4907791;28;9174;-71
2023/01/09 09:06:33;;;;;;;;;;;;;;;25.81;44.85;93228.06;4968435;28;7269;-71
2023/01/09 09:09:20;;;;;;;;;;;;;;;25.80;44.66;93234.84;4971312;28;7081;-70
2023/01/09 09:11:55;;;;;;;;;;;;;;;25.86;44.62;93232.66;4955983;28;7268;-71
2023/01/09 09:17:07;;;;;;;;;;;;;;;25.86;44.90;93242.97;4952756;28;9630;-70
2023/01/09 09:19:33;;;;;;;;;;;;;;;25.84;44.86;93249.00;4978367;28;9084;-71
2023/01/09 09:22:13;;;;;;;;;;;;;;;25.85;44.93;93250.50;4967241;28;7165;-71
2023/01/09 09:24:40;;;;;;;;;;;;;;;25.86;45.44;93246.44;4952844;28;9355;-71
2023/01/09 09:27:12;;;;;;;;;;;;;;;25.89;45.62;93252.88;4955577;28;8403;-71
2023/01/09 09:29:59;;;;;;;;;;;;;;;25.86;45.09;93240.94;4965593;28;7105;-70
2023/01/09 09:32:28;;;;;;;;;;;;;;;25.87;45.30;93247.94;4960481;28;7031;-70
2023/01/09 09:34:54;;;;;;;;;;;;;;;25.83;45.61;93242.03;4958754;28;8849;-70
2023/01/09 09:37:21;;;;;;;;;;;;;;;25.85;45.10;93239.47;4983047;28;8789;-70
2023/01/09 09:39:49;;;;;;;;;;;;;;;25.83;44.67;93241.28;4962130;28;9082;-70
2023/01/09 09:45:39;;;;;;;;;;;;;;;25.88;45.15;93238.38;4946004;28;7511;-70
2023/01/09 09:48:33;;;;;;;;;;;;;;;25.88;44.90;93232.16;4950351;28;8990;-69
2023/01/09 09:51:46;;;;;;;;;;;;;;;25.89;44.71;93231.59;4936072;28;9123;-70
2023/01/09 09:54:23;;;;;;;;;;;;;;;25.95;44.81;93234.19;4956466;28;7268;-70
2023/01/09 09:57:31;;;;;;;;;;;;;;;25.99;44.52;93235.31;4951626;28;8154;-70
2023/01/09 10:00:06;;;;;;;;;;;;;;;26.01;45.03;93235.53;4956120;28;7510;-70
2023/01/09 10:03:21;;;;;;;;;;;;;;;26.02;44.41;93228.75;4953992;28;7263;-70
2023/01/09 10:05:52;;;;;;;;;;;;;;;26.04;45.06;93220.69;4945647;28;9074;-69
2023/01/09 10:08:51;;;;;;;;;;;;;;;26.03;44.54;93219.19;4971646;28;7653;-69
2023/01/09 10:11:32;;;;;;;;;;;;;;;26.03;44.72;93202.66;4956640;28;7813;-70
2023/01/09 10:14:19;;;;;;;;;;;;;;;26.03;44.81;93205.41;4948950;28;7260;-70
2023/01/09 10:17:17;;;;;;;;;;;;;;;26.02;44.35;93220.47;4960843;28;7891;-70
2023/01/09 10:23:40;;;;;;;;;;;;;;;25.99;44.38;93199.50;4956022;28;9429;-70
2023/01/09 10:26:24;;;;;;;;;;;;;;;26.04;44.69;93195.88;4972047;28;7441;-70
2023/01/09 10:29:07;;;;;;;;;;;;;;;26.05;44.41;93204.88;4962797;28;8949;-70
2023/01/09 10:31:43;;;;;;;;;;;;;;;26.04;44.88;93200.63;4971311;28;7360;-70
2023/01/09 10:34:12;;;;;;;;;;;;;;;26.04;45.04;93209.66;4971687;28;8998;-70
2023/01/09 10:37:04;;;;;;;;;;;;;;;26.04;45.10;93209.66;4959845;28;7642;-70
2023/01/09 10:39:37;;;;;;;;;;;;;;;26.02;45.00;93212.22;4960400;28;7209;-70
2023/01/09 10:42:19;;;;;;;;;;;;;;;26.03;44.79;93221.22;4952859;28;9085;-70
2023/01/09 10:45:02;;;;;;;;;;;;;;;26.05;45.27;93205.63;4949635;28;7014;-70
2023/01/09 10:47:34;;;;;;;;;;;;;;;26.04;44.29;93203.41;4969585;28;9589;-70
2023/01/09 10:50:22;;;;;;;;;;;;;;;26.05;44.37;93208.38;4984774;28;9789;-70
2023/01/09 10:52:50;;;;;;;;;;;;;;;26.05;44.83;93202.13;4955719;28;8780;-70
2023/01/09 10:55:43;;;;;;;;;;;;;;;26.06;45.18;93207.09;4947443;28;9095;-69
2023/01/09 10:58:16;;;;;;;;;;;;;;;26.04;44.53;93198.63;4947196;28;8726;-70
2023/01/09 11:00:43;;;;;;;;;;;;;;;26.06;44.22;93190.56;4980230;28;6971;-70
2023/01/09 11:03:14;;;;;;;;;;;;;;;26.06;44.38;93193.31;4954361;28;7256;-70
2023/01/09 11:05:43;;;;;;;;;;;;;;;26.10;44.20;93181.97;4949744;28;7083;-70
2023/01/09 11:08:33;;;;;;;;;;;;;;;26.10;44.09;93188.22;4949053;28;7112;-70
2023/01/09 11:11:05;;;;;;;;;;;;;;;26.11;44.60;93186.94;4948237;28;9351;-70
2023/01/09 11:13:37;;;;;;;;;;;;;;;26.13;44.24;93195.41;4951850;28;8878;-70
2023/01/09 11:16:06;;;;;;;;;;;;;;;26.12;44.81;93182.91;4947798;28;7317;-70
2023/01/09 11:18:38;;;;;;;;;;;;;;;26.12;44.84;93182.91;4951258;28;9234;-70
2023/01/09 11:21:34;;;;;;;;;;;;;;;26.14;43.92;93177.59;4943819;28;9708;-71
2023/01/09 11:24:28;;;;;;;;;;;;;;;26.17;44.24;93190.28;4967515;28;9054;-71
2023/01/09 11:27:24;;;;;;;;;;;;;;;26.15;43.90;93184.56;4953806;28;9230;-70
2023/01/09 11:30:30;;;;;;;;;;;;;;;26.12;43.44;93182.91;4946618;28;7426;-70
2023/01/09 11:32:58;;;;;;;;;;;;;;;26.12;43.50;93171.16;4956130;28;9011;-70
2023/01/09 11:35:32;;;;;;;;;;;;;;;26.09;43.59;93172.22;4951126;28;7060;-70
2023/01/09 11:38:13;;;;;;;;;;;;;;;26.07;43.65;93178.28;4948069;28;6954;-71
2023/01/09 11:41:03;;;;;;;;;;;;;;;26.09;43.98;93180.50;4946322;28;7027;-72
2023/01/09 11:43:39;;;;;;;;;;;;;;;26.09;43.97;93180.50;4975250;28;7053;-69
2023/01/09 11:46:28;;;;;;;;;;;;;;;26.07;43.39;93199.56;4951080;28;9065;-69
2023/01/09 11:48:57;;;;;;;;;;;;;;;26.10;43.97;93204.00;4968629;28;7883;-70
2023/01/09 11:51:27;;;;;;;;;;;;;;;26.09;43.39;93210.81;4951717;29;7189;-69
2023/01/09 11:53:57;;;;;;;;;;;;;;;26.07;43.47;93205.81;4966803;28;9468;-69
2023/01/09 11:56:36;;;;;;;;;;;;;;;26.07;43.42;93208.59;4941579;28;7315;-70
2023/01/09 11:59:12;;;;;;;;;;;;;;;26.09;43.54;93216.31;4949002;28;9453;-70
2023/01/09 12:01:39;;;;;;;;;;;;;;;26.07;44.07;93214.09;4981588;28;9450;-70
2023/01/09 12:04:43;;;;;;;;;;;;;;;26.06;44.16;93234.66;4945892;28;9714;-70
2023/01/09 12:07:20;;;;;;;;;;;;;;;26.10;44.23;93239.84;4979109;28;7230;-69
2023/01/09 12:10:01;;;;;;;;;;;;;;;26.07;44.09;93236.13;4973286;28;7227;-69
2023/01/09 12:13:06;;;;;;;;;;;;;;;26.11;43.61;93255.84;4955721;28;7278;-69
2023/01/09 12:15:32;;;;;;;;;;;;;;;26.10;44.12;93240.56;4949047;28;7282;-70
2023/01/09 12:18:22;;;;;;;;;;;;;;;26.10;43.41;93240.56;4952486;28;8970;-69
2023/01/09 12:21:16;;;;;;;;;;;;;;;26.10;44.30;93237.81;4967310;28;7253;-69
2023/01/09 12:24:16;;;;;;;;;;;;;;;26.07;43.35;93236.13;4975557;28;7286;-69
2023/01/09 12:27:01;;;;;;;;;;;;;;;26.06;44.11;93245.66;4947719;28;7432;-69
2023/01/09 12:29:30;;;;;;;;;;;;;;;26.11;43.36;93246.84;4935180;28;7139;-69
2023/01/09 12:32:22;;;;;;;;;;;;;;;26.10;44.01;93254.34;4949574;28;8742;-69
2023/01/09 12:35:19;;;;;;;;;;;;;;;26.13;43.76;93249.78;4950123;28;7264;-69
2023/01/09 12:37:57;;;;;;;;;;;;;;;26.13;43.71;93256.03;4949867;28;7241;-69
2023/01/09 12:40:56;;;;;;;;;;;;;;;26.13;43.11;93258.06;4969998;28;7283;-70
2023/01/09 12:43:42;;;;;;;;;;;;;;;26.12;43.47;93243.53;4972688;28;9208;-70
2023/01/09 12:46:18;;;;;;;;;;;;;;;26.12;43.22;93254.56;4984014;28;9116;-69
2023/01/09 12:49:14;;;;;;;;;;;;;;;26.05;43.66;93254.50;4946586;28;9039;-69
2023/01/09 12:51:54;;;;;;;;;;;;;;;26.07;43.24;93266.44;4979595;28;7264;-69
2023/01/09 12:54:47;;;;;;;;;;;;;;;26.10;43.05;93259.88;4945021;28;9140;-69
2023/01/09 12:57:16;;;;;;;;;;;;;;;26.09;43.16;93252.16;4984637;28;7299;-69
2023/01/09 12:59:50;;;;;;;;;;;;;;;26.08;43.97;93251.41;4952019;28;7044;-69
2023/01/09 13:02:43;;;;;;;;;;;;;;;26.06;43.56;93242.91;4940296;28;7298;-69
2023/01/09 13:05:23;;;;;;;;;;;;;;;26.08;43.74;93248.66;4946302;28;9010;-70
2023/01/09 13:08:00;;;;;;;;;;;;;;;26.09;43.58;93246.63;4950518;28;7297;-70
2023/01/09 13:10:35;;;;;;;;;;;;;;;26.10;44.09;93239.84;4955837;28;7275;-69
2023/01/09 13:13:22;;;;;;;;;;;;;;;26.06;43.63;93237.41;4967116;28;9914;-71
2023/01/09 13:16:05;;;;;;;;;;;;;;;26.07;44.01;93240.91;4940695;28;8995;-71
2023/01/09 13:19:09;;;;;;;;;;;;;;;26.08;43.06;93237.63;4948194;28;7259;-71
2023/01/09 13:21:38;;;;;;;;;;;;;;;26.06;43.78;93247.69;4973499;28;7041;-70
2023/01/09 13:24:28;;;;;;;;;;;;;;;26.10;43.98;93245.34;4980789;28;9107;-69
2023/01/09 13:27:01;;;;;;;;;;;;;;;26.13;44.09;93234.00;4951814;28;7026;-71
2023/01/09 13:29:38;;;;;;;;;;;;;;;26.14;44.10;93231.97;4969190;28;8986;-71
2023/01/09 13:32:22;;;;;;;;;;;;;;;26.14;43.99;93252.00;4956221;28;7224;-71
2023/01/09 13:34:56;;;;;;;;;;;;;;;26.14;43.84;93229.94;4961834;28;7274;-71
2023/01/09 13:37:27;;;;;;;;;;;;;;;26.13;43.46;93249.78;4968427;28;9029;-69
2023/01/09 13:39:59;;;;;;;;;;;;;;;26.15;44.08;93247.22;4967553;28;7354;-70
2023/01/09 13:42:38;;;;;;;;;;;;;;;26.16;44.01;93246.66;4953081;28;9215;-71
2023/01/09 13:45:25;;;;;;;;;;;;;;;26.15;44.13;93245.22;4965971;28;8232;-71
2023/01/09 13:48:12;;;;;;;;;;;;;;;26.15;44.21;93250.72;4967144;28;7020;-70
2023/01/09 13:50:42;;;;;;;;;;;;;;;26.15;44.19;93258.25;4987335;28;9150;-70
2023/01/09 13:53:28;;;;;;;;;;;;;;;26.15;44.10;93259.00;4972542;28;7270;-70
2023/01/09 13:56:02;;;;;;;;;;;;;;;26.16;44.23;93251.47;4965443;28;9034;-71
2023/01/09 13:58:52;;;;;;;;;;;;;;;26.16;44.15;93254.22;4969747;28;9381;-70
2023/01/09 14:01:34;;;;;;;;;;;;;;;26.17;44.08;93259.19;4952421;28;9580;-70
2023/01/09 14:04:26;;;;;;;;;;;;;;;26.16;44.16;93257.69;4963171;28;7034;-70
2023/01/09 14:07:16;;;;;;;;;;;;;;;26.15;44.27;93245.22;4981413;28;9054;-70
2023/01/09 14:09:51;;;;;;;;;;;;;;;26.16;43.82;93254.22;4944851;28;9098;-71
2023/01/09 14:12:21;;;;;;;;;;;;;;;26.17;44.09;93248.16;4950787;28;8397;-71
2023/01/09 14:15:02;;;;;;;;;;;;;;;26.16;43.79;93254.22;4942286;28;9011;-70
2023/01/09 14:17:40;;;;;;;;;;;;;;;26.15;43.38;93267.25;4953825;28;9258;-71
2023/01/09 14:20:26;;;;;;;;;;;;;;;26.15;44.03;93264.50;4952279;28;9074;-71